createdAt,value
2022-11-01T00:01:41.185Z,100.00
2022-11-01T00:04:08.865Z,100.00
2022-11-01T00:06:36.345Z,100.00
2022-11-01T00:09:04.133Z,100.00
2022-11-01T00:11:31.285Z,100.00
2022-11-01T00:13:58.717Z,100.00
2022-11-01T00:16:26.254Z,100.00
2022-11-01T00:18:53.414Z,100.00
2022-11-01T00:21:20.956Z,100.00
2022-11-01T00:23:48.404Z,100.00
2022-11-01T00:26:21.988Z,100.00
2022-11-01T00:28:50.449Z,100.00
2022-11-01T00:31:19.333Z,100.00
2022-11-01T00:33:46.638Z,100.00
2022-11-01T00:36:14.535Z,100.00
2022-11-01T00:38:41.695Z,100.00
2022-11-01T00:41:09.371Z,100.00
2022-11-01T00:43:36.564Z,100.00
2022-11-01T00:46:04.640Z,100.00
2022-11-01T00:48:31.973Z,100.00
2022-11-01T00:50:59.036Z,100.00
2022-11-01T00:53:26.096Z,100.00
2022-11-01T00:55:53.393Z,100.00
2022-11-01T00:58:20.502Z,100.00
2022-11-01T01:00:47.793Z,100.00
2022-11-01T01:03:15.073Z,100.00
2022-11-01T01:05:42.137Z,100.00
2022-11-01T01:08:09.343Z,100.00
2022-11-01T01:10:36.435Z,100.00
2022-11-01T01:13:04.159Z,100.00
2022-11-01T01:15:31.622Z,100.00
2022-11-01T01:17:58.961Z,100.00
2022-11-01T01:20:26.613Z,100.00
2022-11-01T01:22:53.658Z,100.00
2022-11-01T01:25:20.982Z,100.00
2022-11-01T01:27:48.100Z,100.00
2022-11-01T01:30:15.679Z,100.00
2022-11-01T01:32:43.374Z,100.00
2022-11-01T01:35:10.723Z,100.00
2022-11-01T01:37:37.948Z,100.00
2022-11-01T01:40:06.557Z,100.00
2022-11-01T01:42:41.724Z,100.00
2022-11-01T01:45:31.257Z,100.00
2022-11-01T01:48:22.459Z,100.00
2022-11-01T01:50:57.182Z,100.00
2022-11-01T01:53:30.109Z,100.00
2022-11-01T01:56:03.282Z,100.00
2022-11-01T01:58:54.857Z,100.00
2022-11-01T02:01:22.105Z,100.00
2022-11-01T02:03:49.820Z,100.00
2022-11-01T02:06:18.895Z,100.00
2022-11-01T02:08:52.335Z,100.00
2022-11-01T02:11:20.680Z,100.00
2022-11-01T02:13:48.193Z,100.00
2022-11-01T02:16:34.048Z,100.00
2022-11-01T02:19:19.718Z,100.00
2022-11-01T02:21:54.654Z,100.00
2022-11-01T02:24:30.810Z,100.00
2022-11-01T02:27:09.009Z,100.00
2022-11-01T02:29:45.545Z,100.00
2022-11-01T02:32:31.241Z,100.00
2022-11-01T02:35:20.138Z,100.00
2022-11-01T02:37:55.632Z,100.00
2022-11-01T02:40:28.766Z,100.00
2022-11-01T02:43:07.903Z,100.00
2022-11-01T02:45:39.683Z,100.00
2022-11-01T02:48:07.000Z,100.00
2022-11-01T02:50:42.351Z,100.00
2022-11-01T02:53:10.065Z,100.00
2022-11-01T02:55:37.177Z,100.00
2022-11-01T02:58:16.200Z,100.00
2022-11-01T03:00:44.463Z,100.00
2022-11-01T03:03:28.509Z,100.00
2022-11-01T03:06:02.650Z,100.00
2022-11-01T03:08:44.720Z,100.00
2022-11-01T03:11:20.761Z,100.00
2022-11-01T03:13:52.389Z,100.00
2022-11-01T03:16:27.375Z,100.00
2022-11-01T03:19:06.372Z,100.00
2022-11-01T03:21:46.525Z,100.00
2022-11-01T03:24:26.988Z,100.00
2022-11-01T03:27:10.497Z,100.00
2022-11-01T03:29:39.563Z,100.00
2022-11-01T03:32:07.546Z,100.00
2022-11-01T03:34:37.382Z,100.00
2022-11-01T03:37:09.033Z,100.00
2022-11-01T03:39:42.793Z,100.00
2022-11-01T03:42:15.075Z,100.00
2022-11-01T03:44:46.669Z,100.00
2022-11-01T03:47:15.159Z,100.00
2022-11-01T03:49:42.224Z,100.00
2022-11-01T03:52:09.361Z,100.00
2022-11-01T03:54:36.413Z,100.00
2022-11-01T03:57:03.551Z,100.00
2022-11-01T03:59:30.673Z,100.00
2022-11-01T04:01:57.953Z,100.00
2022-11-01T04:04:25.112Z,100.00
2022-11-01T04:06:52.238Z,100.00
2022-11-01T04:09:19.269Z,100.00
2022-11-01T04:11:46.339Z,100.00
2022-11-01T04:14:31.721Z,100.00
2022-11-01T04:17:17.169Z,100.00
2022-11-01T04:20:02.486Z,100.00
2022-11-01T04:22:29.572Z,100.00
2022-11-01T04:24:56.621Z,100.00
2022-11-01T04:27:23.681Z,100.00
2022-11-01T04:29:50.760Z,100.00
2022-11-01T04:32:17.821Z,100.00
2022-11-01T04:34:45.047Z,100.00
2022-11-01T04:37:12.383Z,100.00
2022-11-01T04:39:39.569Z,100.00
2022-11-01T04:42:06.677Z,100.00
2022-11-01T04:44:33.866Z,100.00
2022-11-01T04:47:00.943Z,100.00
2022-11-01T04:49:27.983Z,100.00
2022-11-01T04:51:55.023Z,100.00
2022-11-01T04:54:22.118Z,100.00
2022-11-01T04:56:49.223Z,100.00
2022-11-01T04:59:16.280Z,100.00
2022-11-01T05:01:45.124Z,100.00
2022-11-01T05:04:12.356Z,100.00
2022-11-01T05:06:39.513Z,100.00
2022-11-01T05:09:06.590Z,100.00
2022-11-01T05:11:33.775Z,100.00
2022-11-01T05:14:00.818Z,100.00
2022-11-01T05:16:27.876Z,100.00
2022-11-01T05:18:54.919Z,100.00
2022-11-01T05:21:21.978Z,100.00
2022-11-01T05:23:49.109Z,100.00
2022-11-01T05:26:16.233Z,100.00
2022-11-01T05:28:43.361Z,100.00
2022-11-01T05:31:10.876Z,100.00
2022-11-01T05:33:37.982Z,100.00
2022-11-01T05:36:05.281Z,100.00
2022-11-01T05:38:32.431Z,100.00
2022-11-01T05:41:02.324Z,100.00
2022-11-01T05:43:29.579Z,100.00
2022-11-01T05:45:56.657Z,100.00
2022-11-01T05:48:23.761Z,100.00
2022-11-01T05:50:50.854Z,100.00
2022-11-01T05:53:17.923Z,100.00
2022-11-01T05:55:44.959Z,100.00
2022-11-01T05:58:12.092Z,100.00
2022-11-01T06:00:39.274Z,100.00
2022-11-01T06:03:07.176Z,100.00
2022-11-01T06:05:34.711Z,100.00
2022-11-01T06:08:02.382Z,100.00
2022-11-01T06:10:30.239Z,100.00
2022-11-01T06:12:57.673Z,100.00
2022-11-01T06:15:24.975Z,100.00
2022-11-01T06:17:57.279Z,100.00
2022-11-01T06:20:29.519Z,100.00
2022-11-01T06:22:57.921Z,100.00
2022-11-01T06:25:27.956Z,100.00
2022-11-01T06:27:55.035Z,100.00
2022-11-01T06:30:22.141Z,100.00
2022-11-01T06:32:49.196Z,100.00
2022-11-01T06:35:16.299Z,100.00
2022-11-01T06:37:43.404Z,100.00
2022-11-01T06:40:12.909Z,100.00
2022-11-01T06:42:45.370Z,100.00
2022-11-01T06:45:14.523Z,100.00
2022-11-01T06:47:46.299Z,100.00
2022-11-01T06:50:13.443Z,100.00
2022-11-01T06:52:40.476Z,100.00
2022-11-01T06:55:08.038Z,100.00
2022-11-01T06:57:35.076Z,100.00
2022-11-01T07:00:02.285Z,100.00
2022-11-01T07:02:30.059Z,100.00
2022-11-01T07:04:57.321Z,100.00
2022-11-01T07:07:24.376Z,100.00
2022-11-01T07:09:51.482Z,100.00
2022-11-01T07:12:18.743Z,100.00
2022-11-01T07:14:45.839Z,100.00
2022-11-01T07:17:12.899Z,100.00
2022-11-01T07:19:39.951Z,100.00
2022-11-01T07:22:08.436Z,100.00
2022-11-01T07:24:35.451Z,100.00
2022-11-01T07:27:02.496Z,100.00
2022-11-01T07:29:29.606Z,100.00
2022-11-01T07:31:56.779Z,100.00
2022-11-01T07:34:23.953Z,100.00
2022-11-01T07:36:53.982Z,100.00
2022-11-01T07:39:21.050Z,100.00
2022-11-01T07:41:48.163Z,100.00
2022-11-01T07:44:15.213Z,100.00
2022-11-01T07:46:42.273Z,100.00
2022-11-01T07:49:09.846Z,100.00
2022-11-01T07:51:37.011Z,100.00
2022-11-01T07:54:04.267Z,100.00
2022-11-01T07:56:31.306Z,100.00
2022-11-01T07:58:58.395Z,100.00
2022-11-01T08:01:25.569Z,100.00
2022-11-01T08:03:52.745Z,100.00
2022-11-01T08:08:49.085Z,100.00
2022-11-01T08:11:16.131Z,100.00
2022-11-01T08:13:43.230Z,100.00
2022-11-01T08:16:10.264Z,100.00
2022-11-01T08:18:37.337Z,100.00
2022-11-01T08:21:04.579Z,100.00
2022-11-01T08:23:31.701Z,100.00
2022-11-01T08:25:58.752Z,100.00
2022-11-01T08:28:28.392Z,100.00
2022-11-01T08:30:55.449Z,100.00
2022-11-01T08:33:22.614Z,100.00
2022-11-01T08:35:50.875Z,100.00
2022-11-01T08:38:18.946Z,100.00
2022-11-01T08:40:46.004Z,100.00
2022-11-01T08:43:13.071Z,100.00
2022-11-01T08:45:40.355Z,100.00
2022-11-01T08:48:09.329Z,100.00
2022-11-01T08:50:36.426Z,100.00
2022-11-01T08:53:14.435Z,100.00
2022-11-01T08:55:41.969Z,100.00
2022-11-01T08:58:09.561Z,100.00
2022-11-01T09:00:36.946Z,100.00
2022-11-01T09:03:04.339Z,100.00
2022-11-01T09:05:31.670Z,100.00
2022-11-01T09:08:00.279Z,100.00
2022-11-01T09:10:29.134Z,100.00
2022-11-01T09:12:57.829Z,100.00
2022-11-01T09:15:25.178Z,100.00
2022-11-01T09:17:53.025Z,100.00
2022-11-01T09:20:20.188Z,100.00
2022-11-01T09:22:51.243Z,100.00
2022-11-01T09:25:18.355Z,100.00
2022-11-01T09:27:45.456Z,100.00
2022-11-01T09:30:12.770Z,100.00
2022-11-01T09:32:39.856Z,100.00
2022-11-01T09:35:07.446Z,100.00
2022-11-01T09:37:34.666Z,100.00
2022-11-01T09:40:03.277Z,100.00
2022-11-01T09:42:39.740Z,100.00
2022-11-01T09:45:19.213Z,100.00
2022-11-01T09:47:48.783Z,100.00
2022-11-01T09:50:25.279Z,100.00
2022-11-01T09:52:54.937Z,100.00
2022-11-01T09:55:30.979Z,100.00
2022-11-01T09:58:06.725Z,100.00
2022-11-01T10:00:39.088Z,100.00
2022-11-01T10:03:33.447Z,100.00
2022-11-01T10:06:19.295Z,100.00
2022-11-01T10:08:46.718Z,100.00
2022-11-01T10:11:39.659Z,100.00
2022-11-01T10:14:23.193Z,100.00
2022-11-01T10:17:03.642Z,100.00
2022-11-01T10:19:35.268Z,100.00
2022-11-01T10:22:15.701Z,100.00
2022-11-01T10:24:52.530Z,100.00
2022-11-01T10:27:26.691Z,100.00
2022-11-01T10:30:04.334Z,100.00
2022-11-01T10:32:35.068Z,100.00
2022-11-01T10:35:10.119Z,100.00
2022-11-01T10:38:11.027Z,100.00
2022-11-01T10:40:47.895Z,100.00
2022-11-01T10:43:19.446Z,100.00
2022-11-01T10:45:51.267Z,100.00
2022-11-01T10:48:35.649Z,99.58
2022-11-01T10:51:06.293Z,100.00
2022-11-01T10:53:55.515Z,100.00
2022-11-01T10:56:29.718Z,100.00
2022-11-01T10:59:16.843Z,100.00
2022-11-01T11:01:45.094Z,100.00
2022-11-01T11:04:15.710Z,100.00
2022-11-01T11:06:43.488Z,100.00
2022-11-01T11:09:26.683Z,100.00
2022-11-01T11:11:59.952Z,100.00
2022-11-01T11:14:31.591Z,100.00
2022-11-01T11:17:00.048Z,100.00
2022-11-01T11:19:29.750Z,100.00
2022-11-01T11:21:58.973Z,98.48
2022-11-01T11:24:28.682Z,96.49
2022-11-01T11:26:57.379Z,97.63
2022-11-01T11:29:40.313Z,98.72
2022-11-01T11:32:18.892Z,98.86
2022-11-01T11:35:13.186Z,98.12
2022-11-01T11:37:49.967Z,99.80
2022-11-01T11:40:17.224Z,97.67
2022-11-01T11:42:45.889Z,95.58
2022-11-01T11:45:30.612Z,97.60
2022-11-01T11:48:15.548Z,97.85
2022-11-01T11:50:43.423Z,94.28
2022-11-01T11:53:24.857Z,93.67
2022-11-01T11:56:06.549Z,95.11
2022-11-01T11:58:38.257Z,93.16
2022-11-01T12:01:08.355Z,93.86
2022-11-01T12:03:56.839Z,92.70
2022-11-01T12:06:27.153Z,93.70
2022-11-01T12:08:59.288Z,93.63
2022-11-01T12:11:40.240Z,88.50
2022-11-01T12:14:21.708Z,88.15
2022-11-01T12:16:49.489Z,90.75
2022-11-01T12:19:27.466Z,94.55
2022-11-01T12:21:57.070Z,94.22
2022-11-01T12:24:32.490Z,95.87
2022-11-01T12:27:03.969Z,96.87
2022-11-01T12:30:11.405Z,93.99
2022-11-01T12:32:50.681Z,95.01
2022-11-01T12:35:23.436Z,96.44
2022-11-01T12:38:08.388Z,95.63
2022-11-01T12:40:42.155Z,96.63
2022-11-01T12:43:15.057Z,97.30
2022-11-01T12:45:52.620Z,97.52
2022-11-01T12:48:25.699Z,95.32
2022-11-01T12:51:03.487Z,92.94
2022-11-01T12:53:44.286Z,94.43
2022-11-01T12:56:12.019Z,95.36
2022-11-01T12:58:39.221Z,94.60
2022-11-01T13:01:28.172Z,96.46
2022-11-01T13:04:25.472Z,97.74
2022-11-01T13:07:13.516Z,97.93
2022-11-01T13:10:08.440Z,95.83
2022-11-01T13:12:39.102Z,96.74
2022-11-01T13:15:16.873Z,96.19
2022-11-01T13:17:52.749Z,94.79
2022-11-01T13:20:59.985Z,92.33
2022-11-01T13:23:27.012Z,73.78
2022-11-01T13:26:07.920Z,71.53
2022-11-01T13:28:47.355Z,69.21
2022-11-01T13:31:23.352Z,63.37
2022-11-01T13:34:00.985Z,62.64
2022-11-01T13:36:53.701Z,65.96
2022-11-01T13:39:33.971Z,71.68
2022-11-01T13:42:12.871Z,71.84
2022-11-01T13:44:47.640Z,69.65
2022-11-01T13:47:20.460Z,69.32
2022-11-01T13:49:53.103Z,74.90
2022-11-01T13:52:26.892Z,76.29
2022-11-01T13:54:58.129Z,79.85
2022-11-01T13:57:27.525Z,80.07
2022-11-01T13:59:55.980Z,81.77
2022-11-01T14:02:23.457Z,83.64
2022-11-01T14:05:11.120Z,84.72
2022-11-01T14:07:44.254Z,86.56
2022-11-01T14:10:17.380Z,87.08
2022-11-01T14:12:48.198Z,86.42
2022-11-01T14:15:22.115Z,85.51
2022-11-01T14:17:52.517Z,86.68
2022-11-01T14:20:25.606Z,88.80
2022-11-01T14:22:54.234Z,89.60
2022-11-01T14:28:17.771Z,89.53
2022-11-01T14:30:49.317Z,92.34
2022-11-01T14:33:21.991Z,94.21
2022-11-01T14:35:55.829Z,93.67
2022-11-01T14:38:35.537Z,89.29
2022-11-01T14:41:04.310Z,94.42
2022-11-01T14:43:35.881Z,96.25
2022-11-01T14:46:09.565Z,96.57
2022-11-01T14:48:46.351Z,94.20
2022-11-01T14:51:34.749Z,94.99
2022-11-01T14:54:11.572Z,92.22
2022-11-01T14:56:41.279Z,89.16
2022-11-01T14:59:14.439Z,84.74
2022-11-01T15:01:47.182Z,78.73
2022-11-01T15:04:29.441Z,77.56
2022-11-01T15:06:58.635Z,73.58
2022-11-01T15:09:30.962Z,73.38
2022-11-01T15:12:25.256Z,71.94
2022-11-01T15:14:55.132Z,72.37
2022-11-01T15:17:29.144Z,72.76
2022-11-01T15:19:57.285Z,73.70
2022-11-01T15:22:28.077Z,76.10
2022-11-01T15:24:58.627Z,76.80
2022-11-01T15:27:36.661Z,81.59
2022-11-01T15:30:04.782Z,84.36
2022-11-01T15:32:34.749Z,87.57
2022-11-01T15:35:18.898Z,87.25
2022-11-01T15:37:50.926Z,92.34
2022-11-01T15:40:31.387Z,98.11
2022-11-01T15:43:00.487Z,99.30
2022-11-01T15:45:30.815Z,100.00
2022-11-01T15:48:02.125Z,100.00
2022-11-01T15:50:35.020Z,100.00
2022-11-01T15:53:04.436Z,100.00
2022-11-01T15:55:36.074Z,100.00
2022-11-01T15:58:08.771Z,100.00
2022-11-01T16:00:43.091Z,100.00
2022-11-01T16:03:28.152Z,100.00
2022-11-01T16:06:00.629Z,100.00
2022-11-01T16:08:39.816Z,100.00
2022-11-01T16:11:07.414Z,100.00
2022-11-01T16:13:35.098Z,100.00
2022-11-01T16:16:12.801Z,100.00
2022-11-01T16:18:43.390Z,100.00
2022-11-01T16:21:20.226Z,100.00
2022-11-01T16:23:56.986Z,100.00
2022-11-01T16:26:24.514Z,100.00
2022-11-01T16:28:53.307Z,100.00
2022-11-01T16:31:28.369Z,100.00
2022-11-01T16:33:57.063Z,100.00
2022-11-01T16:36:35.645Z,100.00
2022-11-01T16:39:25.028Z,100.00
2022-11-01T16:41:52.685Z,100.00
2022-11-01T16:44:20.780Z,100.00
2022-11-01T16:46:48.053Z,100.00
2022-11-01T16:49:15.050Z,100.00
2022-11-01T16:51:42.132Z,100.00
2022-11-01T16:54:15.561Z,100.00
2022-11-01T16:56:49.268Z,100.00
2022-11-01T16:59:24.995Z,100.00
2022-11-01T17:01:54.935Z,100.00
2022-11-01T17:04:22.650Z,100.00
2022-11-01T17:06:50.561Z,100.00
2022-11-01T17:09:19.515Z,100.00
2022-11-01T17:11:51.172Z,100.00
2022-11-01T17:14:20.371Z,100.00
2022-11-01T17:16:49.453Z,100.00
2022-11-01T17:19:25.209Z,100.00
2022-11-01T17:21:52.884Z,100.00
2022-11-01T17:24:22.758Z,100.00
2022-11-01T17:26:51.239Z,100.00
2022-11-01T17:29:18.395Z,100.00
2022-11-01T17:31:45.523Z,100.00
2022-11-01T17:34:12.629Z,100.00
2022-11-01T17:36:44.921Z,100.00
2022-11-01T17:39:11.997Z,100.00
2022-11-01T17:41:39.383Z,100.00
2022-11-01T17:44:06.505Z,100.00
2022-11-01T17:46:33.627Z,100.00
2022-11-01T17:49:00.775Z,100.00
2022-11-01T17:51:27.813Z,100.00
2022-11-01T17:53:56.340Z,100.00
2022-11-01T17:56:24.215Z,100.00
2022-11-01T17:58:53.524Z,100.00
2022-11-01T18:01:21.658Z,100.00
2022-11-01T18:03:49.151Z,100.00
2022-11-01T18:06:16.931Z,100.00
2022-11-01T18:08:50.235Z,100.00
2022-11-01T18:11:33.211Z,100.00
2022-11-01T18:14:15.811Z,100.00
2022-11-01T18:16:49.132Z,100.00
2022-11-01T18:19:37.525Z,100.00
2022-11-01T18:22:21.375Z,100.00
2022-11-01T18:25:20.502Z,100.00
2022-11-01T18:27:47.598Z,100.00
2022-11-01T18:30:17.514Z,100.00
2022-11-01T18:33:04.842Z,100.00
2022-11-01T18:35:38.906Z,100.00
2022-11-01T18:38:30.310Z,100.00
2022-11-01T18:41:02.387Z,100.00
2022-11-01T18:43:34.898Z,100.00
2022-11-01T18:46:25.136Z,100.00
2022-11-01T18:48:59.434Z,100.00
2022-11-01T18:51:28.755Z,100.00
2022-11-01T18:54:12.526Z,100.00
2022-11-01T18:56:48.350Z,100.00
2022-11-01T18:59:26.122Z,100.00
2022-11-01T19:02:00.242Z,100.00
2022-11-01T19:04:31.144Z,100.00
2022-11-01T19:07:22.711Z,100.00
2022-11-01T19:09:52.103Z,100.00
2022-11-01T19:12:27.797Z,100.00
2022-11-01T19:15:02.186Z,100.00
2022-11-01T19:17:37.271Z,100.00
2022-11-01T19:20:20.645Z,100.00
2022-11-01T19:22:47.915Z,100.00
2022-11-01T19:25:20.448Z,100.00
2022-11-01T19:27:53.385Z,100.00
2022-11-01T19:30:24.705Z,100.00
2022-11-01T19:32:54.074Z,100.00
2022-11-01T19:35:22.663Z,100.00
2022-11-01T19:37:52.424Z,100.00
2022-11-01T19:40:32.532Z,100.00
2022-11-01T19:43:10.151Z,100.00
2022-11-01T19:45:43.892Z,100.00
2022-11-01T19:48:13.129Z,100.00
2022-11-01T19:50:42.024Z,100.00
2022-11-01T19:53:17.992Z,100.00
2022-11-01T19:55:59.899Z,100.00
2022-11-01T19:58:43.555Z,100.00
2022-11-01T20:01:17.019Z,100.00
2022-11-01T20:03:47.381Z,100.00
2022-11-01T20:06:30.308Z,100.00
2022-11-01T20:09:02.753Z,100.00
2022-11-01T20:11:33.590Z,100.00
2022-11-01T20:14:00.992Z,100.00
2022-11-01T20:16:28.272Z,100.00
2022-11-01T20:18:55.468Z,100.00
2022-11-01T20:21:22.513Z,100.00
2022-11-01T20:23:50.175Z,100.00
2022-11-01T20:26:17.328Z,100.00
2022-11-01T20:28:44.429Z,100.00
2022-11-01T20:31:11.559Z,100.00
2022-11-01T20:33:38.706Z,100.00
2022-11-01T20:36:10.983Z,100.00
2022-11-01T20:38:38.917Z,100.00
2022-11-01T20:41:06.263Z,100.00
2022-11-01T20:43:33.345Z,100.00
2022-11-01T20:46:00.458Z,100.00
2022-11-01T20:48:27.586Z,100.00
2022-11-01T20:50:54.872Z,100.00
2022-11-01T20:53:24.816Z,100.00
2022-11-01T20:55:55.806Z,100.00
2022-11-01T20:58:22.859Z,100.00
2022-11-01T21:00:51.507Z,100.00
2022-11-01T21:03:20.998Z,100.00
2022-11-01T21:05:49.030Z,100.00
2022-11-01T21:08:27.924Z,100.00
2022-11-01T21:10:59.378Z,100.00
2022-11-01T21:13:33.902Z,100.00
2022-11-01T21:16:02.564Z,100.00
2022-11-01T21:18:37.223Z,100.00
2022-11-01T21:21:13.252Z,100.00
2022-11-01T21:23:42.947Z,100.00
2022-11-01T21:26:23.372Z,100.00
2022-11-01T21:28:54.400Z,100.00
2022-11-01T21:31:34.358Z,100.00
2022-11-01T21:34:10.445Z,100.00
2022-11-01T21:36:41.297Z,100.00
2022-11-01T21:39:17.058Z,100.00
2022-11-01T21:41:52.085Z,100.00
2022-11-01T21:44:38.723Z,100.00
2022-11-01T21:47:08.453Z,100.00
2022-11-01T21:49:36.615Z,100.00
2022-11-01T21:52:06.634Z,100.00
2022-11-01T21:54:37.243Z,100.00
2022-11-01T21:57:06.888Z,100.00
2022-11-01T21:59:34.241Z,100.00
2022-11-01T22:02:02.310Z,100.00
2022-11-01T22:04:31.236Z,100.00
2022-11-01T22:07:00.421Z,100.00
2022-11-01T22:09:27.827Z,100.00
2022-11-01T22:11:54.920Z,100.00
2022-11-01T22:14:22.441Z,100.00
2022-11-01T22:16:49.503Z,100.00
2022-11-01T22:19:16.609Z,100.00
2022-11-01T22:24:15.862Z,100.00
2022-11-01T22:26:42.942Z,100.00
2022-11-01T22:29:10.036Z,100.00
2022-11-01T22:31:37.092Z,100.00
2022-11-01T22:34:04.162Z,100.00
2022-11-01T22:36:37.491Z,100.00
2022-11-01T22:39:30.919Z,100.00
2022-11-01T22:41:58.007Z,100.00
2022-11-01T22:44:27.009Z,100.00
2022-11-01T22:46:58.934Z,100.00
2022-11-01T22:49:41.841Z,100.00
2022-11-01T22:52:15.715Z,100.00
2022-11-01T22:54:47.432Z,100.00
2022-11-01T22:57:17.879Z,100.00
2022-11-01T22:59:53.208Z,100.00
2022-11-01T23:02:31.549Z,100.00
2022-11-01T23:05:04.702Z,100.00
2022-11-01T23:07:39.397Z,100.00
2022-11-01T23:10:22.910Z,100.00
2022-11-01T23:13:15.598Z,100.00
2022-11-01T23:15:43.132Z,100.00
2022-11-01T23:18:16.993Z,100.00
2022-11-01T23:20:45.313Z,100.00
2022-11-01T23:23:19.023Z,100.00
2022-11-01T23:25:46.975Z,100.00
2022-11-01T23:28:14.911Z,100.00
2022-11-01T23:30:43.505Z,100.00
2022-11-01T23:33:17.017Z,100.00
2022-11-01T23:35:54.229Z,100.00
2022-11-01T23:38:29.793Z,100.00
2022-11-01T23:40:57.416Z,100.00
2022-11-01T23:43:32.916Z,100.00
2022-11-01T23:46:01.326Z,100.00
2022-11-01T23:48:29.099Z,100.00
2022-11-01T23:50:56.548Z,100.00
2022-11-01T23:53:41.367Z,100.00
2022-11-01T23:56:09.418Z,100.00
2022-11-01T23:58:37.754Z,100.00
